Time;durP1;ratioP1;P1;durP2;ratioP2;P2;SDS_P1;SDS_P2;PMS_P1;PMS_P2;Temp;Humidity;BMP_temperature;BMP_pressure;BME280_temperature;BME280_humidity;BME280_pressure;Samples;Min_cycle;Max_cycle;Signal;HPM_P1;HPM_P2
2021/12/10 00:01:15;;;;;;;14.75;2.83;;;20.30;59.10;;;;;;5055253;28;20160;-68
2021/12/10 00:03:47;;;;;;;12.68;2.55;;;20.30;58.80;;;;;;5035278;28;20508;-71
2021/12/10 00:06:18;;;;;;;10.88;2.40;;;20.20;58.90;;;;;;5053446;28;20455;-68
2021/12/10 00:08:51;;;;;;;19.77;2.03;;;20.10;58.90;;;;;;5047090;28;20081;-70
2021/12/10 00:11:32;;;;;;;10.45;1.60;;;20.10;59.10;;;;;;5070719;28;20089;-68
2021/12/10 00:14:00;;;;;;;9.43;2.25;;;20.10;58.70;;;;;;5073508;28;20084;-68
2021/12/10 00:16:28;;;;;;;14.70;2.05;;;20.10;58.90;;;;;;5050677;28;20081;-68
2021/12/10 00:19:08;;;;;;;6.38;2.20;;;20.10;58.80;;;;;;5072518;28;20123;-68
2021/12/10 00:21:35;;;;;;;9.25;2.13;;;20.20;58.60;;;;;;5054605;28;20091;-68
2021/12/10 00:24:02;;;;;;;9.90;2.85;;;20.10;58.50;;;;;;5035485;28;20096;-70
2021/12/10 00:26:29;;;;;;;6.22;2.47;;;20.10;58.30;;;;;;5052297;28;20164;-70
2021/12/10 00:29:02;;;;;;;13.32;2.88;;;20.10;58.50;;;;;;5070548;28;20092;-70
2021/12/10 00:31:48;;;;;;;19.17;3.22;;;20.10;62.70;;;;;;5054186;28;20112;-69
2021/12/10 00:34:38;;;;;;;19.77;3.65;;;19.90;70.90;;;;;;5055759;28;20088;-75
2021/12/10 00:37:09;;;;;;;18.90;2.80;;;19.60;76.40;;;;;;5054415;28;20101;-73
2021/12/10 00:40:03;;;;;;;11.95;2.35;;;19.30;82.40;;;;;;5080809;28;20430;-71
2021/12/10 00:42:32;;;;;;;17.20;3.30;;;19.00;82.20;;;;;;5050769;28;20608;-74
2021/12/10 00:45:00;;;;;;;8.50;3.03;;;19.00;87.10;;;;;;5050675;28;20155;-71
2021/12/10 00:47:28;;;;;;;10.45;3.33;;;18.90;84.10;;;;;;5066187;28;20091;-67
2021/12/10 00:49:55;;;;;;;16.73;2.83;;;18.70;88.80;;;;;;5057342;28;20089;-70
2021/12/10 00:52:22;;;;;;;8.15;2.72;;;18.60;91.10;;;;;;5052356;28;20123;-68
2021/12/10 00:54:49;;;;;;;12.75;3.28;;;18.60;91.50;;;;;;5063121;28;20439;-67
2021/12/10 00:57:17;;;;;;;13.32;3.35;;;18.50;92.00;;;;;;5050255;28;20549;-69
2021/12/10 00:59:45;;;;;;;12.15;3.72;;;18.50;92.00;;;;;;5048817;28;20162;-67
2021/12/10 01:02:14;;;;;;;13.98;4.07;;;18.50;91.70;;;;;;5034063;28;20112;-66
2021/12/10 01:04:44;;;;;;;12.60;4.20;;;18.50;93.00;;;;;;5071312;28;20081;-68
2021/12/10 01:07:25;;;;;;;23.05;8.95;;;18.40;92.00;;;;;;5050541;28;20152;-66
2021/12/10 01:09:55;;;;;;;11.45;3.88;;;18.40;91.80;;;;;;5088550;28;20075;-67
2021/12/10 01:12:24;;;;;;;17.00;4.03;;;18.30;90.00;;;;;;5085484;28;20163;-68
2021/12/10 01:15:22;;;;;;;15.30;3.85;;;18.30;88.90;;;;;;5060169;28;20077;-68
2021/12/10 01:27:01;;;;;;;9.98;2.70;;;18.30;82.90;;;;;;5078471;28;20207;-69
2021/12/10 01:29:00;;;;;;;9.30;2.10;;;18.40;81.80;;;;;;5057315;28;20536;-67
2021/12/10 01:31:26;;;;;;;4.47;2.05;;;18.40;81.40;;;;;;5054307;28;20084;-66
2021/12/10 01:33:54;;;;;;;4.53;1.90;;;18.50;79.10;;;;;;5065125;28;20117;-70
2021/12/10 01:36:22;;;;;;;7.57;2.10;;;18.60;79.30;;;;;;5085806;28;20091;-68
2021/12/10 01:38:52;;;;;;;7.90;3.10;;;18.60;78.00;;;;;;5053348;28;20117;-68
2021/12/10 01:41:23;;;;;;;8.73;1.80;;;18.60;78.20;;;;;;5053267;28;20081;-67
2021/12/10 01:43:52;;;;;;;7.88;1.77;;;18.70;74.70;;;;;;5071324;28;20092;-67
2021/12/10 01:46:27;;;;;;;7.05;1.42;;;18.70;74.80;;;;;;5073513;28;20069;-68
2021/12/10 01:48:57;;;;;;;4.72;1.38;;;18.80;73.70;;;;;;5056589;28;20561;-68
2021/12/10 01:51:32;;;;;;;15.82;1.30;;;18.80;73.50;;;;;;5053097;28;20423;-69
2021/12/10 01:54:07;;;;;;;6.55;1.63;;;18.90;72.00;;;;;;5069892;28;20160;-66
2021/12/10 01:56:38;;;;;;;4.72;1.30;;;18.90;71.80;;;;;;5068020;28;20141;-68
2021/12/10 01:59:07;;;;;;;4.07;1.45;;;18.90;71.70;;;;;;5046422;28;20195;-68
2021/12/10 02:01:42;;;;;;;8.15;1.85;;;18.90;71.40;;;;;;5065345;28;21105;-66
2021/12/10 02:04:11;;;;;;;6.90;2.05;;;19.00;72.00;;;;;;5036474;28;20064;-65
2021/12/10 02:06:39;;;;;;;6.13;2.15;;;18.90;72.40;;;;;;5052918;28;20207;-65
2021/12/10 02:09:08;;;;;;;9.35;2.20;;;18.90;72.50;;;;;;5049893;28;20732;-66
2021/12/10 02:11:35;;;;;;;7.30;2.00;;;18.90;73.30;;;;;;5074969;28;20072;-69
2021/12/10 02:14:02;;;;;;;5.47;2.10;;;18.80;74.10;;;;;;5053809;28;20077;-72
2021/12/10 02:16:29;;;;;;;4.53;1.80;;;18.70;72.80;;;;;;5052680;28;20085;-66
2021/12/10 02:18:55;;;;;;;3.85;2.20;;;18.80;73.20;;;;;;5070213;28;20104;-67
2021/12/10 02:21:26;;;;;;;4.95;1.45;;;18.70;72.20;;;;;;5055042;28;20084;-66
2021/12/10 02:23:57;;;;;;;4.40;1.40;;;18.70;72.80;;;;;;5068064;28;20119;-65
2021/12/10 02:26:30;;;;;;;3.67;0.90;;;18.70;72.50;;;;;;5070684;28;20073;-67
2021/12/10 02:28:57;;;;;;;5.35;0.90;;;18.70;71.70;;;;;;5052837;28;20080;-67
2021/12/10 02:31:25;;;;;;;3.55;1.20;;;18.80;71.10;;;;;;5071320;28;20535;-68
2021/12/10 02:33:55;;;;;;;2.28;0.95;;;18.70;72.10;;;;;;5063555;28;20165;-66
2021/12/10 02:36:22;;;;;;;4.13;1.00;;;18.70;76.00;;;;;;5052954;28;20109;-68
2021/12/10 02:38:51;;;;;;;2.90;0.82;;;18.60;75.30;;;;;;5070429;28;20143;-68
2021/12/10 02:41:20;;;;;;;3.60;0.60;;;18.50;77.00;;;;;;5086714;28;20080;-65
2021/12/10 02:43:47;;;;;;;1.70;0.85;;;18.40;77.00;;;;;;5085636;28;20535;-65
2021/12/10 02:46:15;;;;;;;3.05;1.00;;;18.30;77.00;;;;;;5054290;28;20512;-68
2021/12/10 02:48:41;;;;;;;1.63;1.00;;;18.30;75.10;;;;;;5052276;28;20206;-69
2021/12/10 02:51:09;;;;;;;7.22;1.50;;;18.30;74.60;;;;;;5068629;28;20227;-66
2021/12/10 02:53:42;;;;;;;7.95;1.35;;;18.30;74.00;;;;;;5051959;28;20214;-66
2021/12/10 02:56:10;;;;;;;5.22;1.88;;;18.30;73.70;;;;;;5046093;28;20112;-66
2021/12/10 02:58:37;;;;;;;4.10;1.73;;;18.30;73.60;;;;;;5052047;28;20109;-67
2021/12/10 03:01:39;;;;;;;1.90;1.13;;;18.30;72.90;;;;;;5073835;28;20123;-65
2021/12/10 03:04:10;;;;;;;2.40;1.08;;;18.30;74.00;;;;;;5051100;28;20085;-65
2021/12/10 03:06:45;;;;;;;1.70;0.88;;;18.30;74.10;;;;;;5073590;28;20066;-65
2021/12/10 03:09:13;;;;;;;4.57;1.35;;;18.20;74.10;;;;;;5067436;28;20104;-66
2021/12/10 03:11:46;;;;;;;3.70;1.20;;;18.20;73.50;;;;;;5066736;28;20073;-67
2021/12/10 03:14:16;;;;;;;3.53;1.30;;;18.20;74.60;;;;;;5055282;28;20077;-67
2021/12/10 03:16:43;;;;;;;1.83;1.17;;;18.20;74.80;;;;;;5055934;28;20069;-65
2021/12/10 03:19:10;;;;;;;5.05;1.10;;;18.10;75.50;;;;;;5041546;28;20080;-64
2021/12/10 03:21:44;;;;;;;2.17;1.08;;;18.10;75.80;;;;;;5057433;28;20629;-66
2021/12/10 03:24:13;;;;;;;3.70;1.20;;;18.10;76.20;;;;;;5054106;28;20123;-66
2021/12/10 03:26:39;;;;;;;4.60;1.50;;;18.00;76.50;;;;;;5068383;28;20535;-63
2021/12/10 03:29:07;;;;;;;4.18;1.20;;;18.10;76.80;;;;;;5068097;28;20454;-66
2021/12/10 03:31:34;;;;;;;8.00;1.83;;;18.00;76.20;;;;;;5065511;28;20544;-64
2021/12/10 03:34:01;;;;;;;5.43;1.83;;;18.00;76.60;;;;;;5070602;28;20087;-66
2021/12/10 03:36:29;;;;;;;3.10;1.58;;;18.00;76.60;;;;;;5073271;28;20092;-67
2021/12/10 03:38:55;;;;;;;4.13;1.20;;;18.00;76.60;;;;;;5073793;28;20081;-66
2021/12/10 03:41:22;;;;;;;4.13;0.85;;;18.00;75.30;;;;;;5045243;28;20074;-67
2021/12/10 03:43:50;;;;;;;2.65;0.70;;;18.00;73.50;;;;;;5052756;28;20109;-67
2021/12/10 03:46:17;;;;;;;3.40;0.88;;;18.10;72.70;;;;;;5077039;28;20076;-66
2021/12/10 03:48:45;;;;;;;2.45;1.00;;;18.10;71.20;;;;;;5064432;28;20168;-65
2021/12/10 03:51:18;;;;;;;1.83;0.52;;;18.10;70.60;;;;;;5055756;28;20097;-66
2021/12/10 03:53:45;;;;;;;3.53;0.88;;;18.20;69.20;;;;;;5069185;28;20077;-66
2021/12/10 03:56:15;;;;;;;5.70;1.00;;;18.20;68.90;;;;;;5055534;28;20076;-67
2021/12/10 03:58:43;;;;;;;4.03;0.95;;;18.20;68.30;;;;;;5055337;28;20108;-66
2021/12/10 04:01:11;;;;;;;3.47;0.95;;;18.30;67.90;;;;;;5056054;28;20089;-66
2021/12/10 04:03:40;;;;;;;5.38;0.85;;;18.30;67.40;;;;;;5054788;28;20073;-67
2021/12/10 04:06:07;;;;;;;4.28;1.00;;;18.30;66.80;;;;;;5070076;28;20575;-67
2021/12/10 04:08:35;;;;;;;3.25;0.60;;;18.30;66.70;;;;;;5035637;28;20105;-66
2021/12/10 04:11:02;;;;;;;3.15;0.60;;;18.30;66.40;;;;;;5053695;28;20111;-67
2021/12/10 04:13:28;;;;;;;6.47;0.80;;;18.30;65.70;;;;;;5055156;28;20182;-65
2021/12/10 04:15:55;;;;;;;6.78;0.68;;;18.30;65.60;;;;;;5051630;28;20528;-67
2021/12/10 04:18:22;;;;;;;2.25;0.50;;;18.30;64.60;;;;;;5036839;28;20096;-66
2021/12/10 04:20:49;;;;;;;5.72;0.70;;;18.30;64.70;;;;;;5069662;28;20073;-66
2021/12/10 04:23:19;;;;;;;3.90;0.70;;;18.30;65.00;;;;;;5072890;28;20073;-65
2021/12/10 04:25:46;;;;;;;4.35;0.80;;;18.20;65.20;;;;;;5068188;28;20127;-67
2021/12/10 04:28:15;;;;;;;12.07;0.70;;;18.20;65.90;;;;;;5051797;28;20489;-64
2021/12/10 04:30:45;;;;;;;1.15;0.40;;;18.20;65.50;;;;;;5055143;28;20080;-64
2021/12/10 04:33:15;;;;;;;3.15;0.80;;;18.20;66.30;;;;;;5054866;28;20527;-65
2021/12/10 04:35:44;;;;;;;4.85;0.50;;;18.20;66.50;;;;;;5054510;28;20131;-66
2021/12/10 04:38:11;;;;;;;4.85;0.60;;;18.10;66.80;;;;;;5063176;28;20089;-66
2021/12/10 04:40:38;;;;;;;5.82;0.68;;;18.10;68.70;;;;;;5073061;28;20491;-65
2021/12/10 04:43:04;;;;;;;4.60;2.78;;;18.10;68.40;;;;;;5054130;28;20653;-65
2021/12/10 04:45:31;;;;;;;6.32;0.80;;;18.10;68.40;;;;;;5056374;28;20101;-66
2021/12/10 04:47:57;;;;;;;3.33;0.70;;;18.00;68.30;;;;;;5083139;28;20068;-66
2021/12/10 04:50:27;;;;;;;12.40;0.88;;;18.00;67.50;;;;;;5045803;28;20089;-66
2021/12/10 04:52:55;;;;;;;10.27;0.90;;;17.90;67.20;;;;;;5065907;28;20074;-66
2021/12/10 04:55:22;;;;;;;22.63;1.27;;;17.90;67.00;;;;;;5060301;28;20104;-66
2021/12/10 04:57:48;;;;;;;25.17;1.33;;;17.80;65.90;;;;;;5056830;28;20138;-65
2021/12/10 05:00:30;;;;;;;23.88;1.23;;;17.70;64.80;;;;;;5063951;28;20104;-65
2021/12/10 05:03:00;;;;;;;29.27;1.40;;;17.70;64.60;;;;;;5046523;28;20073;-65
2021/12/10 05:05:27;;;;;;;20.75;1.98;;;17.70;64.50;;;;;;5059262;28;20073;-65
2021/12/10 05:07:55;;;;;;;20.13;0.88;;;17.60;64.70;;;;;;5059191;28;20069;-65
2021/12/10 05:10:21;;;;;;;11.30;0.98;;;17.60;65.30;;;;;;5075723;28;20163;-69
2021/12/10 05:12:48;;;;;;;12.73;1.00;;;17.50;65.60;;;;;;5040897;28;20516;-69
2021/12/10 05:15:20;;;;;;;8.27;0.57;;;17.50;66.20;;;;;;5044507;28;20097;-68
2021/12/10 05:17:48;;;;;;;2.83;0.60;;;17.40;66.40;;;;;;5073348;28;20089;-68
2021/12/10 05:20:20;;;;;;;9.05;0.60;;;17.40;66.80;;;;;;5059462;28;20069;-68
2021/12/10 05:22:48;;;;;;;4.50;0.90;;;17.40;67.90;;;;;;5036531;28;20070;-67
2021/12/10 05:25:15;;;;;;;4.88;0.75;;;17.40;68.10;;;;;;5053713;28;20168;-65
2021/12/10 05:27:42;;;;;;;6.93;0.82;;;17.40;68.20;;;;;;5046714;28;20218;-66
2021/12/10 05:30:12;;;;;;;2.08;0.75;;;17.30;68.80;;;;;;5070052;28;20084;-68
2021/12/10 05:32:38;;;;;;;0.90;0.70;;;17.30;68.90;;;;;;5070614;28;20073;-67
2021/12/10 05:35:05;;;;;;;;;;;17.30;68.60;;;;;;5058663;28;20218;-68
2021/12/10 05:37:32;;;;;;;5.03;0.95;;;17.30;68.80;;;;;;5048375;28;20028;-66
2021/12/10 05:39:58;;;;;;;1.63;0.68;;;17.20;68.40;;;;;;5086012;28;20099;-68
2021/12/10 05:42:25;;;;;;;3.22;0.90;;;17.10;68.20;;;;;;5051210;28;20531;-67
2021/12/10 05:44:52;;;;;;;2.55;0.60;;;17.20;68.90;;;;;;5051773;28;20095;-67
2021/12/10 05:47:19;;;;;;;4.43;0.68;;;17.10;68.60;;;;;;5052427;28;20081;-65
2021/12/10 05:49:46;;;;;;;8.27;0.60;;;17.10;68.20;;;;;;5081987;28;20889;-66
2021/12/10 05:52:14;;;;;;;4.53;0.70;;;17.10;68.50;;;;;;5075000;28;20081;-67
2021/12/10 05:54:43;;;;;;;0.63;0.47;;;17.10;68.30;;;;;;5077475;28;20069;-67
2021/12/10 05:57:10;;;;;;;3.55;0.80;;;17.00;68.70;;;;;;5039506;28;20123;-66
2021/12/10 05:59:37;;;;;;;2.10;0.60;;;17.00;68.40;;;;;;5065700;28;20110;-67
2021/12/10 06:02:04;;;;;;;2.53;0.70;;;17.00;68.60;;;;;;5070684;28;20515;-67
2021/12/10 06:04:31;;;;;;;4.03;0.68;;;17.00;68.80;;;;;;5060280;28;20085;-65
2021/12/10 06:06:58;;;;;;;9.82;1.25;;;17.00;68.70;;;;;;5049021;28;20080;-65
2021/12/10 06:09:25;;;;;;;11.57;0.93;;;16.90;69.00;;;;;;5041917;28;20191;-65
2021/12/10 06:11:51;;;;;;;3.75;0.60;;;17.00;69.30;;;;;;5052807;28;20081;-66
2021/12/10 06:14:18;;;;;;;7.30;1.02;;;16.90;70.00;;;;;;5058149;28;20100;-67
2021/12/10 06:16:45;;;;;;;2.95;0.50;;;16.90;70.90;;;;;;5064737;28;20518;-65
2021/12/10 06:19:11;;;;;;;5.97;0.60;;;16.90;71.70;;;;;;5032900;28;20096;-66
2021/12/10 06:21:39;;;;;;;8.68;0.98;;;16.80;72.20;;;;;;5045533;28;20672;-66
2021/12/10 06:24:07;;;;;;;14.23;1.30;;;16.70;72.50;;;;;;5043113;28;20420;-65
2021/12/10 06:26:33;;;;;;;7.20;0.80;;;16.70;73.10;;;;;;5051599;28;20081;-67
2021/12/10 06:29:00;;;;;;;5.47;0.80;;;16.60;73.40;;;;;;5035010;28;20089;-65
2021/12/10 06:31:27;;;;;;;12.73;0.70;;;16.60;73.70;;;;;;5073283;28;20072;-65
2021/12/10 06:33:54;;;;;;;6.82;0.63;;;16.50;71.40;;;;;;5042368;28;20076;-64
2021/12/10 06:36:21;;;;;;;3.22;0.90;;;16.30;79.60;;;;;;5019450;28;20095;-65
2021/12/10 06:38:48;;;;;;;7.72;1.40;;;16.50;68.70;;;;;;5053595;28;20079;-64
2021/12/10 06:41:15;;;;;;;10.48;1.38;;;16.30;86.70;;;;;;5059526;28;20075;-69
2021/12/10 06:43:43;;;;;;;15.85;1.52;;;16.40;84.20;;;;;;5051042;28;20059;-65
2021/12/10 06:46:10;;;;;;;21.42;2.08;;;16.30;63.40;;;;;;5047387;28;20067;-67
2021/12/10 06:48:37;;;;;;;27.02;2.55;;;16.00;67.30;;;;;;5054144;28;20113;-64
2021/12/10 06:51:11;;;;;;;14.32;1.55;;;16.70;66.10;;;;;;5050121;28;20104;-68
2021/12/10 06:53:43;;;;;;;19.60;2.13;;;16.10;62.00;;;;;;5048705;28;20080;-66
2021/12/10 06:56:12;;;;;;;15.77;2.33;;;16.10;61.40;;;;;;5049207;28;20095;-66
2021/12/10 06:58:39;;;;;;;16.65;2.30;;;16.00;60.50;;;;;;5041908;28;20112;-65
2021/12/10 07:01:17;;;;;;;15.60;1.30;;;16.00;61.50;;;;;;5044656;28;20099;-64
2021/12/10 07:03:45;;;;;;;29.70;2.20;;;15.90;61.40;;;;;;5049244;28;20051;-67
2021/12/10 07:06:11;;;;;;;32.72;2.25;;;;;;;;;;5060317;28;20552;-67
2021/12/10 07:08:41;;;;;;;42.13;2.53;;;15.90;84.00;;;;;;5065841;28;20632;-68
2021/12/10 07:11:11;;;;;;;14.65;2.50;;;15.90;72.00;;;;;;5062168;28;20080;-69
2021/12/10 07:13:39;;;;;;;8.15;1.63;;;15.70;83.70;;;;;;5031186;28;20028;-68
2021/12/10 07:16:06;;;;;;;6.10;1.65;;;15.80;70.10;;;;;;5042700;28;20084;-69
2021/12/10 07:18:33;;;;;;;16.40;1.88;;;15.80;94.00;;;;;;5043941;28;20114;-68
2021/12/10 07:21:00;;;;;;;14.93;1.60;;;15.80;89.30;;;;;;5042861;28;20069;-67
2021/12/10 07:23:26;;;;;;;15.57;1.70;;;15.80;90.20;;;;;;5062162;28;20069;-69
2021/12/10 07:25:53;;;;;;;8.95;1.90;;;15.70;61.80;;;;;;5041488;28;20084;-67
2021/12/10 07:28:20;;;;;;;45.65;2.35;;;15.80;66.60;;;;;;5060174;28;20076;-67
2021/12/10 07:30:48;;;;;;;41.08;2.92;;;15.80;61.40;;;;;;5047194;28;20093;-64
2021/12/10 07:33:16;;;;;;;31.15;2.53;;;;;;;;;;5051118;28;20081;-67
2021/12/10 07:35:44;;;;;;;22.67;1.80;;;15.70;64.80;;;;;;5056322;28;20078;-70
2021/12/10 07:38:11;;;;;;;14.48;1.50;;;15.70;61.40;;;;;;5031265;28;20590;-67
2021/12/10 07:40:37;;;;;;;;;;;15.70;61.60;;;;;;5036033;28;20072;-67
2021/12/10 07:43:06;;;;;;;11.65;1.83;;;15.50;91.30;;;;;;5040363;28;20471;-67
2021/12/10 07:45:33;;;;;;;5.50;1.10;;;15.60;61.80;;;;;;5033864;28;20082;-67
2021/12/10 07:48:03;;;;;;;7.05;1.40;;;15.60;62.20;;;;;;5039134;28;20103;-67
2021/12/10 07:50:34;;;;;;;5.25;0.90;;;15.50;62.40;;;;;;5032424;28;20093;-67
2021/12/10 07:53:03;;;;;;;9.98;1.30;;;15.50;62.60;;;;;;5034769;28;20143;-67
2021/12/10 07:55:33;;;;;;;5.07;1.50;;;15.40;62.70;;;;;;5046751;28;20081;-69
2021/12/10 07:58:00;;;;;;;5.93;2.03;;;15.40;63.00;;;;;;5060933;28;20498;-67
2021/12/10 08:00:33;;;;;;;4.35;1.33;;;15.40;63.00;;;;;;5047802;28;20082;-66
2021/12/10 08:03:00;;;;;;;6.50;1.20;;;15.30;63.40;;;;;;5065896;28;20120;-69
2021/12/10 08:05:29;;;;;;;4.32;1.38;;;15.30;63.70;;;;;;5046614;28;20134;-67
2021/12/10 08:07:56;;;;;;;5.85;1.10;;;15.30;63.90;;;;;;5060899;28;20074;-67
2021/12/10 08:10:24;;;;;;;7.80;1.67;;;15.20;64.00;;;;;;5045060;28;20527;-66
2021/12/10 08:12:50;;;;;;;8.02;1.95;;;15.20;64.30;;;;;;5046223;28;20176;-66
2021/12/10 08:15:17;;;;;;;;;;;15.10;64.80;;;;;;5050158;28;20073;-69
2021/12/10 08:17:44;;;;;;;7.72;1.95;;;15.10;64.90;;;;;;5040654;28;20574;-67
2021/12/10 08:20:14;;;;;;;5.68;2.42;;;15.10;64.60;;;;;;5047060;28;20527;-67
2021/12/10 08:22:41;;;;;;;5.32;1.90;;;15.10;64.70;;;;;;5044790;28;20557;-69
2021/12/10 08:25:08;;;;;;;3.95;1.10;;;15.00;64.40;;;;;;5041113;28;20074;-67
2021/12/10 08:27:37;;;;;;;3.00;0.80;;;15.10;63.80;;;;;;5043412;28;20074;-68
2021/12/10 08:30:09;;;;;;;5.50;0.85;;;15.10;63.70;;;;;;5064623;28;20073;-67
2021/12/10 08:32:36;;;;;;;4.53;0.82;;;15.10;63.50;;;;;;5063837;28;20093;-67
2021/12/10 08:35:05;;;;;;;3.17;0.65;;;15.10;63.60;;;;;;5065123;28;20137;-66
2021/12/10 08:37:32;;;;;;;1.27;0.70;;;15.10;63.90;;;;;;5046277;28;20535;-68
2021/12/10 08:39:58;;;;;;;;;;;15.10;63.90;;;;;;5056180;28;20139;-68
2021/12/10 08:42:25;;;;;;;2.83;0.77;;;15.10;64.30;;;;;;5053566;28;19975;-66
2021/12/10 08:44:52;;;;;;;4.85;1.08;;;15.00;64.40;;;;;;5055494;28;20073;-68
2021/12/10 08:47:19;;;;;;;3.35;0.77;;;15.00;64.40;;;;;;5046378;28;20176;-68
2021/12/10 08:49:46;;;;;;;4.72;1.30;;;15.00;64.50;;;;;;5057994;28;20092;-67
2021/12/10 08:52:14;;;;;;;3.05;0.80;;;15.00;64.80;;;;;;5069980;28;20078;-67
2021/12/10 08:54:42;;;;;;;4.03;1.00;;;15.00;64.80;;;;;;5044653;28;20526;-68
2021/12/10 08:57:09;;;;;;;4.28;1.08;;;15.00;64.80;;;;;;5061770;28;20074;-69
2021/12/10 08:59:38;;;;;;;4.90;1.00;;;15.00;65.00;;;;;;5042671;28;20205;-66
2021/12/10 09:02:10;;;;;;;3.22;0.93;;;15.30;85.60;;;;;;5053924;28;20203;-66
2021/12/10 09:04:37;;;;;;;2.85;0.95;;;14.90;65.60;;;;;;5052838;28;20066;-66
2021/12/10 09:07:09;;;;;;;3.42;0.90;;;14.90;65.70;;;;;;5045274;28;20093;-67
2021/12/10 09:09:38;;;;;;;2.95;1.00;;;14.80;65.80;;;;;;5060384;28;20077;-68
2021/12/10 09:12:11;;;;;;;4.00;0.90;;;14.80;65.80;;;;;;5044439;28;20073;-67
2021/12/10 09:14:43;;;;;;;4.50;0.90;;;14.80;65.70;;;;;;5060772;28;20096;-66
2021/12/10 09:17:11;;;;;;;6.68;1.08;;;14.80;65.60;;;;;;5064571;28;20073;-66
2021/12/10 09:19:40;;;;;;;3.42;0.98;;;14.80;65.80;;;;;;5043657;28;20494;-67
2021/12/10 09:22:08;;;;;;;2.92;1.15;;;14.80;66.10;;;;;;5061967;28;20478;-66
2021/12/10 09:24:36;;;;;;;5.60;0.90;;;14.70;66.10;;;;;;5045213;28;20073;-67
2021/12/10 09:27:03;;;;;;;5.68;1.00;;;14.60;66.20;;;;;;5059477;28;20168;-67
2021/12/10 09:29:39;;;;;;;4.30;0.93;;;14.60;66.50;;;;;;5045971;28;20607;-68
2021/12/10 09:32:08;;;;;;;6.03;1.35;;;14.60;66.60;;;;;;5059396;28;20171;-69
2021/12/10 09:34:35;;;;;;;2.92;1.13;;;14.60;66.60;;;;;;5060218;28;20161;-67
2021/12/10 09:37:01;;;;;;;11.05;1.35;;;14.60;66.90;;;;;;5058100;28;20080;-67
2021/12/10 09:39:29;;;;;;;;;;;14.60;66.70;;;;;;5046162;28;20149;-67
2021/12/10 09:41:55;;;;;;;;;;;14.60;66.90;;;;;;5045304;28;19985;-67
2021/12/10 09:44:22;;;;;;;8.02;1.50;;;14.60;67.00;;;;;;5045279;28;19956;-67
2021/12/10 09:46:49;;;;;;;8.60;1.25;;;14.60;66.90;;;;;;5064482;28;20081;-66
2021/12/10 09:49:16;;;;;;;7.38;1.40;;;14.20;85.30;;;;;;5044006;28;20116;-65
2021/12/10 09:51:50;;;;;;;8.63;1.63;;;14.50;66.80;;;;;;5054133;28;20252;-69
2021/12/10 09:54:19;;;;;;;6.65;1.40;;;14.50;67.20;;;;;;5032186;28;20531;-67
2021/12/10 09:56:50;;;;;;;8.93;1.42;;;14.50;67.20;;;;;;5038867;28;20078;-67
2021/12/10 09:59:18;;;;;;;7.22;1.67;;;14.40;67.30;;;;;;5048525;28;20110;-68
2021/12/10 10:01:47;;;;;;;9.35;1.88;;;14.90;67.90;;;;;;5024582;28;20085;-68
2021/12/10 10:04:18;;;;;;;8.40;1.70;;;14.30;67.60;;;;;;5041752;28;20077;-68
2021/12/10 10:06:50;;;;;;;8.20;2.15;;;14.30;67.70;;;;;;5017500;28;20642;-67
2021/12/10 10:09:19;;;;;;;12.02;1.65;;;14.30;67.50;;;;;;5041678;28;20439;-69
2021/12/10 10:11:49;;;;;;;12.05;2.08;;;14.30;67.20;;;;;;5057770;28;20069;-67
2021/12/10 10:14:15;;;;;;;8.55;1.50;;;14.30;67.20;;;;;;5073188;28;20580;-68
2021/12/10 10:16:44;;;;;;;10.93;1.77;;;14.30;66.80;;;;;;5067795;28;20547;-66
2021/12/10 10:19:14;;;;;;;6.22;1.63;;;14.20;66.60;;;;;;5029829;28;20131;-67
2021/12/10 10:21:45;;;;;;;6.55;1.77;;;14.30;67.20;;;;;;5029096;28;20444;-68
2021/12/10 10:24:12;;;;;;;9.27;1.75;;;14.20;66.30;;;;;;5013834;28;20085;-65
2021/12/10 10:26:44;;;;;;;9.35;1.77;;;14.20;66.10;;;;;;5027749;28;20578;-67
2021/12/10 10:29:19;;;;;;;12.05;1.70;;;14.30;66.30;;;;;;5059927;28;20100;-68
2021/12/10 10:31:51;;;;;;;10.88;1.65;;;14.20;66.10;;;;;;5061261;28;20088;-67
2021/12/10 10:34:19;;;;;;;11.02;2.30;;;14.20;65.90;;;;;;5042949;28;20082;-68
2021/12/10 10:36:46;;;;;;;8.70;2.00;;;14.20;66.00;;;;;;5024589;28;20096;-67
2021/12/10 10:39:22;;;;;;;9.65;1.80;;;14.20;65.90;;;;;;5045094;28;20086;-67
2021/12/10 10:41:54;;;;;;;9.07;1.95;;;14.10;66.00;;;;;;5059469;28;20097;-67
2021/12/10 10:44:23;;;;;;;9.32;1.70;;;14.20;66.20;;;;;;5049479;28;20623;-65
2021/12/10 10:46:52;;;;;;;6.97;1.80;;;14.10;66.20;;;;;;5050458;28;20911;-68
2021/12/10 10:49:43;;;;;;;13.75;1.77;;;14.10;66.30;;;;;;5063195;28;20095;-68
2021/12/10 10:52:36;;;;;;;9.05;1.95;;;14.00;66.50;;;;;;5060857;28;20127;-66
2021/12/10 10:55:11;;;;;;;10.95;2.05;;;14.00;66.50;;;;;;5044349;28;20416;-66
2021/12/10 10:57:48;;;;;;;8.75;1.70;;;14.00;66.50;;;;;;5048358;28;20214;-67
2021/12/10 11:00:33;;;;;;;10.68;2.10;;;14.00;66.60;;;;;;5051606;28;20180;-66
2021/12/10 11:03:10;;;;;;;8.90;1.73;;;13.90;66.70;;;;;;5061806;28;20531;-66
2021/12/10 11:05:44;;;;;;;;;;;13.90;66.60;;;;;;5045729;28;20105;-68
2021/12/10 11:08:11;;;;;;;9.90;1.83;;;13.90;66.80;;;;;;5062876;28;20329;-66
2021/12/10 11:10:40;;;;;;;7.97;1.75;;;13.60;93.30;;;;;;5054959;28;20079;-68
2021/12/10 11:13:19;;;;;;;12.30;2.00;;;13.80;67.00;;;;;;5056217;28;20164;-68
2021/12/10 11:16:08;;;;;;;9.55;1.92;;;13.70;67.20;;;;;;5042339;28;20077;-68
2021/12/10 11:18:49;;;;;;;8.00;1.67;;;13.70;67.40;;;;;;5051707;28;20100;-67
2021/12/10 11:21:31;;;;;;;9.18;2.00;;;12.90;66.90;;;;;;5047021;28;20069;-65
2021/12/10 11:24:11;;;;;;;12.80;2.20;;;13.60;67.80;;;;;;5044222;28;20070;-65
2021/12/10 11:26:51;;;;;;;10.02;1.80;;;13.60;67.90;;;;;;5046515;28;20104;-66
2021/12/10 11:29:38;;;;;;;6.28;1.60;;;13.60;67.80;;;;;;5053078;28;20092;-66
2021/12/10 11:32:10;;;;;;;12.18;1.90;;;13.60;67.90;;;;;;5076953;28;20083;-66
2021/12/10 11:35:11;;;;;;;9.15;1.92;;;13.60;67.70;;;;;;5046935;28;20438;-67
2021/12/10 11:38:08;;;;;;;11.73;1.77;;;13.50;67.40;;;;;;5046081;28;20139;-66
2021/12/10 11:40:35;;;;;;;7.03;1.77;;;13.50;67.30;;;;;;5004058;28;20082;-67
2021/12/10 11:48:56;;;;;;;9.95;1.80;;;13.40;68.00;;;;;;5007412;28;20118;-65
2021/12/10 11:52:00;;;;;;;8.55;2.20;;;13.30;68.00;;;;;;5003854;28;20086;-66
2021/12/10 11:54:42;;;;;;;9.00;2.28;;;13.20;90.30;;;;;;4992077;28;20086;-66
2021/12/10 11:57:21;;;;;;;8.05;2.38;;;13.30;68.10;;;;;;4977062;28;20528;-66
2021/12/10 12:00:04;;;;;;;8.68;2.05;;;13.30;68.20;;;;;;4989138;28;20201;-68
2021/12/10 12:02:57;;;;;;;10.60;2.50;;;13.30;68.00;;;;;;4996102;28;20079;-68
2021/12/10 12:05:27;;;;;;;8.55;1.50;;;13.20;67.90;;;;;;5001667;28;20086;-66
2021/12/10 12:07:57;;;;;;;9.20;2.17;;;13.20;68.00;;;;;;4999782;28;20545;-66
2021/12/10 12:10:31;;;;;;;6.80;1.92;;;13.20;68.10;;;;;;4983212;28;20086;-67
2021/12/10 12:15:45;;;;;;;7.07;1.50;;;13.20;67.90;;;;;;5002608;28;20075;-68
2021/12/10 12:18:22;;;;;;;6.03;1.55;;;13.20;68.10;;;;;;5051449;28;20325;-68
2021/12/10 12:20:52;;;;;;;11.75;2.53;;;13.20;68.30;;;;;;5065638;28;20077;-68
2021/12/10 12:26:29;;;;;;;10.57;1.90;;;13.10;68.70;;;;;;5059511;28;20649;-67
2021/12/10 12:29:08;;;;;;;7.70;1.85;;;13.00;68.90;;;;;;5037040;28;20100;-68
2021/12/10 12:31:38;;;;;;;8.55;1.65;;;13.00;69.40;;;;;;5047409;28;20077;-66
2021/12/10 12:34:11;;;;;;;9.82;2.25;;;13.00;69.70;;;;;;5045653;28;20073;-66
2021/12/10 12:36:40;;;;;;;9.07;1.83;;;13.00;69.90;;;;;;5046429;28;20077;-68
2021/12/10 12:39:14;;;;;;;10.05;2.15;;;13.00;70.40;;;;;;5063777;28;20096;-66
2021/12/10 12:41:47;;;;;;;7.55;1.48;;;13.00;70.50;;;;;;5064721;28;20095;-66
2021/12/10 12:44:21;;;;;;;11.60;1.80;;;12.90;71.00;;;;;;5048272;28;20080;-66
2021/12/10 12:47:26;;;;;;;11.20;2.10;;;12.90;71.70;;;;;;5046657;28;20527;-68
2021/12/10 12:50:05;;;;;;;9.75;2.20;;;12.90;72.30;;;;;;4993555;28;20190;-66
2021/12/10 12:52:39;;;;;;;7.13;2.05;;;12.90;72.80;;;;;;4997320;28;20078;-68
2021/12/10 12:55:23;;;;;;;9.30;2.40;;;12.90;72.90;;;;;;5012966;28;20103;-68
2021/12/10 12:58:07;;;;;;;8.32;2.55;;;12.90;74.10;;;;;;5013032;28;20112;-68
2021/12/10 13:00:58;;;;;;;12.98;2.40;;;12.80;74.40;;;;;;4995544;28;20090;-66
2021/12/10 13:03:37;;;;;;;15.13;2.00;;;12.80;74.40;;;;;;5011652;28;20077;-66
2021/12/10 13:06:25;;;;;;;18.27;2.50;;;12.70;75.10;;;;;;5014397;28;20093;-67
2021/12/10 13:09:04;;;;;;;15.80;2.30;;;12.60;76.00;;;;;;5013416;28;20465;-69
2021/12/10 13:12:07;;;;;;;14.57;2.30;;;12.60;76.10;;;;;;4995751;28;20078;-69
2021/12/10 13:14:50;;;;;;;7.03;1.52;;;12.60;76.40;;;;;;4992106;28;20087;-68
2021/12/10 13:17:24;;;;;;;7.75;2.28;;;12.50;76.50;;;;;;5014607;28;20133;-69
2021/12/10 13:19:53;;;;;;;11.38;2.10;;;12.50;77.40;;;;;;5006172;28;20104;-66
2021/12/10 13:22:22;;;;;;;12.57;2.28;;;12.40;77.50;;;;;;5055432;28;20600;-69
2021/12/10 13:24:53;;;;;;;10.07;1.90;;;12.40;78.00;;;;;;5071614;28;20104;-67